Terminal Aerodrome Forecast
Issued by NWS New Orleans/Baton Rouge, LA

Home | Current Version | Previous Version | Text Only | Print | Product List | Glossary On
Versions: 1 2 3 4 5 6 7 8 9 10 11 12 13 14 15 16 17 18 19 20 21 22 23 24 25 26 27 28 29 30
000
FTUS44 KLIX 251904 AAA
TAFNEW
TAF AMD
KNEW 251904Z 2519/2618 16012KT P6SM VCTS BKN025CB BKN090
      TEMPO 2519/2520 VRB20G35KT 1SM TSRA SCT008 BKN025CB
     FM260000 14014KT P6SM VCSH SCT025 BKN110
     FM260600 16011KT P6SM SCT015 BKN035
     FM261500 16011KT P6SM VCSH BKN025=

USA.gov is the U.S. government's official web portal to all federal, state and local government web resources and services.